Hlavní strana
METAR-TAF:

METAR-TAF

Letiště :

Mauricius, Mauritius

zeměpisná šířka: 20-26S, zeměpisná délka: 057-40E, výška: 55 m

Aktuální stav počasí

Zpráva byla vytvořena před 38 minutami, v 06:00 UTC
Východojihovýchodní vítr 11 kt
Teplota 28°C
Vlhkost vzduchu 74%
Tlak 1015 hPa
Viditelnost 10 km a více
Polojasno ve výšce 1600 ft
přeháňky v blízkosti

METAR: FIMP 180600Z 11011KT 9999 VCSH SCT016 28/23 Q1015

Čas: 10:38 (06:38 UTC)

Předpověď počasí

Zpráva byla vytvořena před 1 hodinou a 23 minutami, v 05:15 UTC
Předpověď platná od 18 v 06 UTC do 19 v 12 UTC
Východojihovýchodní vítr 10 kt
Viditelnost 10 km a více
Polojasno ve výšce 1600 ft
Dočasný
od 18 v 10 UTC do 18 v 20 UTC
Viditelnost: 7000 m
Skoro jasno ve výšce 1000 ft
Polojasno ve výšce 1500 ft
Oblačno až skoro zataženo ve výšce 5000 ft
slabé dešťové přeháňky

TAF: FIMP 180515Z 1806/1912 12010KT 9999 SCT016 TEMPO 1810/1820 7000 -SHRA FEW010 SCT015 BKN050

Stav a předpovědi počasí z více než 4 000 letišť (zprávy METAR a TAF).

Červené a žluté tečky na mapě představují dostupné meteorologické stanice.

Když kurzor umístíte na tečku, zobrazí se název stanice.

Pak kliknutím zobrazíte stav a předpověď počasí.

Chcete-li změnit mapu, kliknutím na zelené tlačítko se znaménkem +mapu přiblížíte, kliknutím na zelené tlačítko se znaménkem – mapu oddálíte a kliknutím na zelené šipky přejdete na sousední mapy.


METAR-TAF: